Time;durP1;ratioP1;P1;durP2;ratioP2;P2;SDS_P1;SDS_P2;PMS_P1;PMS_P2;Temp;Humidity;BMP_temperature;BMP_pressure;BME280_temperature;BME280_humidity;BME280_pressure;Samples;Min_cycle;Max_cycle;Signal;HPM_P1;HPM_P2
2021/08/13 00:01:34;;;;;;;16.30;15.00;;;19.90;99.90;;;;;;4935847;28;20627;-72
2021/08/13 00:04:00;;;;;;;16.73;15.30;;;20.00;99.90;;;;;;4935785;29;20326;-73
2021/08/13 00:06:28;;;;;;;17.00;15.70;;;20.00;99.90;;;;;;4934498;29;20718;-73
2021/08/13 00:08:53;;;;;;;17.40;16.00;;;19.90;99.90;;;;;;4938295;29;20215;-73
2021/08/13 00:11:28;;;;;;;15.87;14.63;;;19.90;99.90;;;;;;4936345;28;20721;-73
2021/08/13 00:13:56;;;;;;;16.10;14.60;;;19.90;99.90;;;;;;4932420;29;20183;-73
2021/08/13 00:16:22;;;;;;;16.63;15.33;;;19.90;99.90;;;;;;4933226;28;20639;-73
2021/08/13 00:18:50;;;;;;;14.23;13.13;;;19.90;99.90;;;;;;4937404;29;21179;-72
2021/08/13 00:21:15;;;;;;;16.77;15.37;;;19.80;99.90;;;;;;4933552;28;20215;-73
2021/08/13 00:23:43;;;;;;;16.60;15.30;;;19.80;99.90;;;;;;4938025;29;21181;-73
2021/08/13 00:26:12;;;;;;;15.40;14.10;;;19.80;99.90;;;;;;4938799;28;20192;-73
2021/08/13 00:28:37;;;;;;;16.77;15.27;;;19.80;99.90;;;;;;4935000;29;20636;-73
2021/08/13 00:31:03;;;;;;;16.60;15.20;;;19.80;99.90;;;;;;4942830;28;20798;-73
2021/08/13 00:33:29;;;;;;;16.43;15.13;;;19.70;99.90;;;;;;4935314;28;20242;-73
2021/08/13 00:35:54;;;;;;;17.20;15.83;;;19.80;99.90;;;;;;4937421;29;20231;-73
2021/08/13 00:38:22;;;;;;;15.57;14.27;;;19.80;99.90;;;;;;4931047;29;20314;-72
2021/08/13 00:40:47;;;;;;;17.10;15.70;;;19.70;99.90;;;;;;4932803;29;20294;-73
2021/08/13 00:43:15;;;;;;;15.97;14.77;;;19.70;99.90;;;;;;4935147;28;21259;-72
2021/08/13 00:45:43;;;;;;;16.77;15.47;;;19.70;99.90;;;;;;4945768;29;20210;-73
2021/08/13 00:48:11;;;;;;;15.83;14.50;;;19.70;99.90;;;;;;4947293;29;20644;-73
2021/08/13 00:50:37;;;;;;;17.03;15.73;;;19.70;99.90;;;;;;4934313;29;20655;-73
2021/08/13 00:53:06;;;;;;;16.73;15.37;;;19.80;99.90;;;;;;4931175;28;20702;-73
2021/08/13 00:55:36;;;;;;;16.30;15.00;;;19.70;99.90;;;;;;4939090;28;21186;-73
2021/08/13 00:58:02;;;;;;;15.90;14.67;;;19.70;99.90;;;;;;4938189;29;20679;-72
2021/08/13 01:00:30;;;;;;;16.40;15.10;;;19.70;99.90;;;;;;4935927;29;20668;-73
2021/08/13 01:02:56;;;;;;;16.27;14.93;;;19.70;99.90;;;;;;4933884;28;20313;-73
2021/08/13 01:05:21;;;;;;;16.43;15.03;;;19.70;99.90;;;;;;4932335;28;20635;-73
2021/08/13 01:07:49;;;;;;;16.43;14.93;;;19.70;99.90;;;;;;4937524;28;20646;-72
2021/08/13 01:10:15;;;;;;;16.60;15.23;;;19.70;99.90;;;;;;4937062;28;20731;-74
2021/08/13 01:12:59;;;;;;;15.80;14.40;;;19.70;99.90;;;;;;4934187;28;20639;-73
2021/08/13 01:15:29;;;;;;;16.07;14.77;;;19.70;99.90;;;;;;4941525;29;20825;-73
2021/08/13 01:18:05;;;;;;;14.60;13.50;;;19.70;99.90;;;;;;4932057;29;21181;-73
2021/08/13 01:20:49;;;;;;;15.80;14.57;;;19.80;99.90;;;;;;4930991;28;20659;-73
2021/08/13 01:23:29;;;;;;;15.77;14.47;;;19.80;99.90;;;;;;4931841;28;20673;-72
2021/08/13 01:26:06;;;;;;;16.17;14.87;;;19.80;99.90;;;;;;4927774;29;20659;-72
2021/08/13 01:28:35;;;;;;;17.17;15.87;;;19.80;99.90;;;;;;4926603;28;20779;-73
2021/08/13 01:31:08;;;;;;;15.53;14.20;;;19.80;99.90;;;;;;4929107;28;20677;-73
2021/08/13 01:33:37;;;;;;;16.67;15.37;;;19.80;99.90;;;;;;4929725;28;20627;-73
2021/08/13 01:36:04;;;;;;;15.90;14.70;;;19.80;99.90;;;;;;4930866;29;22072;-72
2021/08/13 01:38:31;;;;;;;15.13;13.93;;;19.80;99.90;;;;;;4928135;29;20711;-73
2021/08/13 01:41:00;;;;;;;15.77;14.37;;;19.80;99.90;;;;;;4932087;28;20647;-73
2021/08/13 01:43:32;;;;;;;16.27;14.97;;;19.80;99.90;;;;;;4929831;28;20700;-72
2021/08/13 01:46:00;;;;;;;15.63;14.43;;;19.80;99.90;;;;;;4929871;29;20598;-72
2021/08/13 01:48:29;;;;;;;16.30;15.00;;;19.80;99.90;;;;;;4927732;29;21308;-73
2021/08/13 01:51:00;;;;;;;15.67;14.50;;;19.80;99.90;;;;;;4926002;28;20655;-73
2021/08/13 01:53:29;;;;;;;17.10;15.70;;;19.80;99.90;;;;;;4928948;28;20710;-73
2021/08/13 01:55:57;;;;;;;15.70;14.50;;;19.80;99.90;;;;;;4928686;28;21576;-73
2021/08/13 01:58:24;;;;;;;15.93;14.67;;;19.80;99.90;;;;;;4929973;28;20680;-72
2021/08/13 02:00:53;;;;;;;15.83;14.53;;;19.90;99.90;;;;;;4930914;28;20684;-73
2021/08/13 02:03:19;;;;;;;16.60;15.20;;;19.90;99.90;;;;;;4932100;28;20651;-73
2021/08/13 02:05:47;;;;;;;15.77;14.37;;;19.90;99.90;;;;;;4929971;29;20627;-73
2021/08/13 02:08:13;;;;;;;15.57;14.27;;;19.90;99.90;;;;;;4931140;28;20212;-73
2021/08/13 02:10:44;;;;;;;17.50;16.00;;;19.90;99.90;;;;;;4929441;28;20722;-73
2021/08/13 02:13:11;;;;;;;15.33;14.13;;;19.90;99.90;;;;;;4928043;28;20662;-73
2021/08/13 02:15:38;;;;;;;17.77;16.20;;;19.90;99.90;;;;;;4927118;28;20656;-73
2021/08/13 02:18:24;;;;;;;15.40;14.20;;;19.90;99.90;;;;;;4930041;29;20622;-72
2021/08/13 02:20:57;;;;;;;15.20;14.00;;;19.80;99.90;;;;;;4932223;28;20762;-73
2021/08/13 02:23:23;;;;;;;16.63;15.17;;;19.90;99.90;;;;;;4927649;28;20655;-73
2021/08/13 02:25:48;;;;;;;16.30;14.80;;;19.90;99.90;;;;;;4932382;28;20628;-72
2021/08/13 02:28:17;;;;;;;15.80;14.40;;;19.90;99.90;;;;;;4928295;28;20541;-72
2021/08/13 02:30:42;;;;;;;16.53;15.17;;;19.90;99.90;;;;;;4934495;28;20208;-72
2021/08/13 02:33:10;;;;;;;15.97;14.67;;;19.90;99.90;;;;;;4925892;28;20713;-73
2021/08/13 02:35:38;;;;;;;16.17;14.77;;;19.80;99.90;;;;;;4926791;29;20218;-73
2021/08/13 02:38:14;;;;;;;15.60;14.30;;;19.80;99.90;;;;;;4935044;29;21198;-73
2021/08/13 02:41:10;;;;;;;15.43;14.20;;;19.80;99.90;;;;;;4928521;29;20717;-72
2021/08/13 02:43:56;;;;;;;15.13;13.87;;;19.80;99.90;;;;;;4926870;29;20663;-72
2021/08/13 02:46:23;;;;;;;15.13;13.93;;;19.80;99.90;;;;;;4929685;29;20624;-72
2021/08/13 02:48:52;;;;;;;15.63;14.47;;;19.70;99.90;;;;;;4930351;29;20639;-72
2021/08/13 02:51:19;;;;;;;16.10;14.73;;;19.70;99.90;;;;;;4927238;28;20658;-72
2021/08/13 02:53:48;;;;;;;15.93;14.63;;;19.70;99.90;;;;;;4928252;29;20647;-73
2021/08/13 02:56:17;;;;;;;16.13;14.77;;;19.70;99.90;;;;;;4928341;29;20627;-73
2021/08/13 02:58:48;;;;;;;14.53;13.33;;;19.70;99.90;;;;;;4928897;29;21057;-73
2021/08/13 03:01:45;;;;;;;16.33;14.93;;;19.70;99.90;;;;;;4931284;28;20638;-72
2021/08/13 03:04:14;;;;;;;14.77;13.57;;;19.70;99.90;;;;;;4931584;29;20774;-72
2021/08/13 03:06:45;;;;;;;17.10;15.77;;;19.60;99.90;;;;;;4930795;29;20623;-73
2021/08/13 03:09:13;;;;;;;16.80;15.30;;;19.60;99.90;;;;;;4930304;28;21087;-72
2021/08/13 03:11:47;;;;;;;16.20;14.93;;;19.60;99.90;;;;;;4929482;28;20639;-73
2021/08/13 03:14:13;;;;;;;16.70;15.40;;;19.50;99.90;;;;;;4933050;28;20696;-72
2021/08/13 03:16:43;;;;;;;16.50;15.20;;;19.50;99.90;;;;;;4920426;29;21658;-73
2021/08/13 03:19:09;;;;;;;15.77;14.57;;;19.40;99.90;;;;;;4931584;29;20571;-73
2021/08/13 03:21:35;;;;;;;16.63;15.30;;;19.40;99.90;;;;;;4935241;28;20761;-72
2021/08/13 03:24:10;;;;;;;16.50;15.10;;;19.40;99.90;;;;;;4930479;28;20792;-73
2021/08/13 03:26:36;;;;;;;16.47;15.20;;;19.40;99.90;;;;;;4929914;29;20619;-73
2021/08/13 03:29:04;;;;;;;16.77;15.37;;;19.40;99.90;;;;;;4925056;28;20657;-72
2021/08/13 03:31:41;;;;;;;16.87;15.47;;;19.40;99.90;;;;;;4924990;28;20607;-73
2021/08/13 03:34:10;;;;;;;17.53;15.90;;;19.40;99.90;;;;;;4926468;29;20624;-73
2021/08/13 03:36:37;;;;;;;16.60;15.30;;;19.30;99.90;;;;;;4929545;29;20627;-72
2021/08/13 03:39:08;;;;;;;17.40;16.00;;;19.30;99.90;;;;;;4929600;28;20821;-73
2021/08/13 03:41:34;;;;;;;18.63;17.13;;;19.30;99.90;;;;;;4940480;28;20694;-73
2021/08/13 03:44:00;;;;;;;18.13;16.43;;;19.20;99.90;;;;;;4934158;28;21008;-72
2021/08/13 03:46:28;;;;;;;17.77;16.27;;;19.20;99.90;;;;;;4925650;29;20669;-73
2021/08/13 03:49:00;;;;;;;18.37;16.70;;;19.10;99.90;;;;;;4927485;28;20659;-73
2021/08/13 03:51:25;;;;;;;17.13;15.80;;;19.10;99.90;;;;;;4925456;28;20802;-72
2021/08/13 03:53:59;;;;;;;18.53;16.93;;;19.10;99.90;;;;;;4928490;29;20951;-73
2021/08/13 03:56:24;;;;;;;17.80;16.23;;;19.10;99.90;;;;;;4932921;29;20207;-72
2021/08/13 03:58:52;;;;;;;17.33;15.87;;;19.00;99.90;;;;;;4932653;29;20711;-72
2021/08/13 04:01:18;;;;;;;16.03;14.83;;;19.00;99.90;;;;;;4930685;28;20227;-72
2021/08/13 04:03:43;;;;;;;16.30;15.00;;;19.00;99.90;;;;;;4930880;29;21238;-73
2021/08/13 04:06:09;;;;;;;18.43;16.73;;;19.00;99.90;;;;;;4931304;29;22377;-73
2021/08/13 04:08:37;;;;;;;18.40;16.70;;;19.00;99.90;;;;;;4931279;29;20680;-73
2021/08/13 04:11:02;;;;;;;18.03;16.43;;;18.90;99.90;;;;;;4929105;29;20275;-73
2021/08/13 04:13:28;;;;;;;17.37;15.97;;;18.90;99.90;;;;;;4931787;28;20658;-73
2021/08/13 04:15:56;;;;;;;17.57;16.00;;;18.90;99.90;;;;;;4931278;28;20222;-73
2021/08/13 04:18:22;;;;;;;18.77;17.20;;;18.90;99.90;;;;;;4938011;29;20189;-73
2021/08/13 04:20:52;;;;;;;18.07;16.57;;;18.90;99.90;;;;;;4933210;29;20705;-73
2021/08/13 04:23:17;;;;;;;18.70;17.20;;;18.80;99.90;;;;;;4930402;28;20602;-73
2021/08/13 04:25:45;;;;;;;17.03;15.63;;;18.80;99.90;;;;;;4930728;29;20618;-73
2021/08/13 04:28:13;;;;;;;17.43;15.97;;;18.80;99.90;;;;;;4931295;29;20218;-73
2021/08/13 04:30:42;;;;;;;17.57;16.07;;;18.80;99.90;;;;;;4931676;29;20654;-72
2021/08/13 04:33:14;;;;;;;16.93;15.53;;;18.80;99.90;;;;;;4930262;28;20650;-73
2021/08/13 04:35:42;;;;;;;16.70;15.10;;;18.80;99.90;;;;;;4929545;28;20616;-72
2021/08/13 04:38:08;;;;;;;17.90;16.40;;;18.80;99.90;;;;;;4931217;29;20984;-73
2021/08/13 04:40:34;;;;;;;18.60;17.00;;;18.80;99.90;;;;;;4933228;28;20662;-73
2021/08/13 04:43:00;;;;;;;17.47;16.03;;;18.80;99.90;;;;;;4928818;28;21561;-72
2021/08/13 04:45:29;;;;;;;16.70;15.40;;;18.80;99.90;;;;;;4933234;28;20196;-72
2021/08/13 04:47:57;;;;;;;18.37;16.90;;;18.80;99.90;;;;;;4931500;28;20250;-73
2021/08/13 04:50:25;;;;;;;17.40;16.00;;;18.80;99.90;;;;;;4930178;28;20682;-72
2021/08/13 04:52:53;;;;;;;17.27;15.87;;;18.80;99.90;;;;;;4928464;28;21225;-72
2021/08/13 04:55:24;;;;;;;18.30;16.80;;;18.80;99.90;;;;;;4929460;28;20622;-73
2021/08/13 04:57:50;;;;;;;15.13;13.93;;;18.80;99.90;;;;;;4930218;29;20728;-73
2021/08/13 05:00:19;;;;;;;16.57;15.17;;;18.80;99.90;;;;;;4930684;28;20734;-73
2021/08/13 05:02:45;;;;;;;17.77;16.17;;;18.90;99.90;;;;;;4932119;28;20727;-73
2021/08/13 05:05:14;;;;;;;18.00;16.50;;;18.90;99.90;;;;;;4929914;28;20782;-73
2021/08/13 05:07:42;;;;;;;16.63;15.23;;;18.90;99.90;;;;;;4933277;28;20671;-73
2021/08/13 05:10:10;;;;;;;16.43;15.03;;;18.90;99.90;;;;;;4934339;28;21672;-72
2021/08/13 05:12:41;;;;;;;17.63;16.07;;;19.00;99.90;;;;;;4930866;28;20667;-72
2021/08/13 05:15:14;;;;;;;18.67;17.07;;;19.00;99.90;;;;;;4933993;28;21069;-72
2021/08/13 05:17:40;;;;;;;16.73;15.10;;;19.00;99.90;;;;;;4924178;28;20687;-72
2021/08/13 05:20:07;;;;;;;17.90;16.37;;;19.10;99.90;;;;;;4927650;28;20674;-73
2021/08/13 05:22:34;;;;;;;16.90;15.50;;;19.10;99.90;;;;;;4926189;28;20642;-72
2021/08/13 05:25:11;;;;;;;18.57;17.07;;;19.10;99.90;;;;;;4927232;28;20626;-72
2021/08/13 05:27:37;;;;;;;19.73;18.03;;;19.20;99.90;;;;;;4923951;28;20631;-72
2021/08/13 05:30:08;;;;;;;18.13;16.70;;;19.20;99.90;;;;;;4927784;28;20647;-72
2021/08/13 05:32:41;;;;;;;19.50;17.80;;;19.30;99.90;;;;;;4927089;28;20646;-73
2021/08/13 05:35:08;;;;;;;20.10;18.30;;;19.30;99.90;;;;;;4932660;28;20777;-72
2021/08/13 05:37:36;;;;;;;19.83;17.97;;;19.40;99.90;;;;;;4931224;28;20712;-73
2021/08/13 05:40:03;;;;;;;19.97;18.30;;;19.40;99.90;;;;;;4934106;28;20654;-73
2021/08/13 05:42:29;;;;;;;21.53;19.43;;;19.50;99.90;;;;;;4933767;28;20638;-73
2021/08/13 05:44:57;;;;;;;27.00;24.50;;;19.50;99.90;;;;;;4938039;28;20616;-73
2021/08/13 05:47:23;;;;;;;27.27;24.70;;;19.70;99.90;;;;;;4935392;29;20282;-72
2021/08/13 05:49:50;;;;;;;25.07;22.77;;;19.80;99.90;;;;;;4938668;28;21097;-73
2021/08/13 05:52:19;;;;;;;26.77;24.37;;;19.90;99.90;;;;;;4937912;28;20224;-72
2021/08/13 05:54:47;;;;;;;27.60;24.97;;;20.00;99.90;;;;;;4939126;29;20610;-72
2021/08/13 05:57:12;;;;;;;26.90;24.60;;;20.10;99.90;;;;;;4937451;29;20642;-72
2021/08/13 05:59:40;;;;;;;26.13;23.63;;;20.10;99.90;;;;;;4940774;28;20646;-72
2021/08/13 06:02:06;;;;;;;25.27;23.03;;;20.30;99.90;;;;;;4940358;28;20267;-72
2021/08/13 06:04:31;;;;;;;29.83;23.67;;;20.30;99.90;;;;;;4927149;28;22616;-73
2021/08/13 06:06:57;;;;;;;26.77;24.10;;;20.40;99.90;;;;;;4933093;28;20196;-73
2021/08/13 06:09:22;;;;;;;24.17;21.73;;;20.50;99.90;;;;;;4936260;28;20276;-72
2021/08/13 06:11:48;;;;;;;23.57;21.07;;;20.60;99.90;;;;;;4937944;28;20232;-72
2021/08/13 06:14:13;;;;;;;21.37;19.47;;;20.70;99.90;;;;;;4937698;28;20184;-72
2021/08/13 06:16:39;;;;;;;20.80;18.97;;;20.70;99.90;;;;;;4939909;28;20605;-72
2021/08/13 06:19:04;;;;;;;21.40;19.50;;;20.80;99.90;;;;;;4936941;28;20187;-72
2021/08/13 06:21:31;;;;;;;19.30;17.40;;;20.90;99.90;;;;;;4939202;28;20200;-72
2021/08/13 06:23:59;;;;;;;18.03;16.13;;;21.00;99.90;;;;;;4938256;28;20188;-73
2021/08/13 06:26:25;;;;;;;16.73;15.13;;;21.00;99.90;;;;;;4937883;29;20689;-72
2021/08/13 06:28:50;;;;;;;17.00;15.40;;;21.10;99.90;;;;;;4936769;29;20660;-73
2021/08/13 06:31:16;;;;;;;15.07;13.60;;;21.20;99.90;;;;;;4936410;28;20636;-73
2021/08/13 06:33:41;;;;;;;15.57;13.87;;;21.20;99.90;;;;;;4937610;29;20194;-73
2021/08/13 06:36:07;;;;;;;13.80;12.67;;;21.30;99.90;;;;;;4949226;29;20183;-73
2021/08/13 06:38:32;;;;;;;14.07;12.80;;;21.40;99.90;;;;;;4959361;28;20188;-73
2021/08/13 06:40:58;;;;;;;13.80;12.30;;;21.50;99.90;;;;;;4944818;29;20215;-73
2021/08/13 06:43:27;;;;;;;13.83;12.53;;;21.50;99.90;;;;;;4939331;28;20223;-72
2021/08/13 06:45:52;;;;;;;13.57;12.20;;;21.50;99.90;;;;;;4936023;29;20187;-73
2021/08/13 06:48:18;;;;;;;12.47;11.33;;;21.60;99.90;;;;;;4943084;28;20655;-73
2021/08/13 06:50:43;;;;;;;12.37;11.07;;;21.70;99.90;;;;;;4937657;29;20672;-73
2021/08/13 06:53:10;;;;;;;11.40;10.30;;;21.80;99.90;;;;;;4937263;28;20700;-73
2021/08/13 06:55:38;;;;;;;11.13;10.03;;;21.90;99.90;;;;;;4937080;29;20627;-72
2021/08/13 06:58:04;;;;;;;9.90;8.93;;;22.00;99.90;;;;;;4935538;29;20204;-71
2021/08/13 07:00:30;;;;;;;8.77;8.07;;;22.00;99.90;;;;;;4938924;28;20741;-73
2021/08/13 07:02:55;;;;;;;8.80;8.03;;;22.10;99.90;;;;;;4936717;28;20643;-73
2021/08/13 07:05:21;;;;;;;11.13;9.93;;;22.20;99.90;;;;;;4937711;29;20576;-73
2021/08/13 07:07:47;;;;;;;10.83;9.90;;;22.30;99.90;;;;;;4936206;29;20508;-73
2021/08/13 07:10:13;;;;;;;9.00;8.20;;;22.30;99.90;;;;;;4938032;28;20282;-72
2021/08/13 07:12:39;;;;;;;9.63;8.83;;;22.40;99.90;;;;;;4937196;28;20566;-72
2021/08/13 07:15:06;;;;;;;8.77;8.07;;;22.60;99.90;;;;;;4937734;28;20299;-72
2021/08/13 07:17:33;;;;;;;9.13;8.43;;;22.60;99.90;;;;;;4935519;28;20630;-73
2021/08/13 07:19:58;;;;;;;9.17;8.33;;;22.70;99.90;;;;;;4935623;28;20693;-73
2021/08/13 07:22:24;;;;;;;8.70;8.00;;;22.80;99.90;;;;;;4934928;28;21729;-73
2021/08/13 07:24:49;;;;;;;8.90;8.20;;;22.80;99.90;;;;;;4935699;28;20222;-73
2021/08/13 07:27:15;;;;;;;10.00;9.07;;;22.90;99.90;;;;;;4940970;28;20195;-72
2021/08/13 07:29:40;;;;;;;8.80;8.10;;;22.90;99.90;;;;;;4941327;28;20231;-73
2021/08/13 07:32:06;;;;;;;8.47;7.60;;;23.00;99.90;;;;;;4940201;28;20676;-72
2021/08/13 07:34:31;;;;;;;10.00;9.10;;;22.90;99.90;;;;;;4940366;28;20268;-73
2021/08/13 07:36:57;;;;;;;8.97;8.20;;;23.00;99.90;;;;;;4942477;28;20207;-73
2021/08/13 07:39:23;;;;;;;9.13;8.23;;;22.90;99.90;;;;;;4938555;29;21146;-73
2021/08/13 07:41:48;;;;;;;10.40;9.50;;;23.00;99.90;;;;;;4941381;28;20227;-72
2021/08/13 07:44:14;;;;;;;10.47;9.63;;;23.00;99.90;;;;;;4941215;29;20279;-73
2021/08/13 07:46:39;;;;;;;9.77;8.97;;;23.00;99.90;;;;;;4940284;28;20188;-73
2021/08/13 07:49:05;;;;;;;8.87;8.17;;;23.10;99.90;;;;;;4938242;29;20326;-73
2021/08/13 07:51:33;;;;;;;9.73;8.73;;;23.20;99.90;;;;;;4939260;28;21725;-72
2021/08/13 07:53:58;;;;;;;9.77;8.77;;;23.20;99.90;;;;;;4939311;29;20390;-73
2021/08/13 07:56:24;;;;;;;10.20;9.40;;;23.30;99.90;;;;;;4938326;28;20777;-73
2021/08/13 07:58:49;;;;;;;10.50;9.60;;;23.30;99.90;;;;;;4940893;29;20198;-73
2021/08/13 08:01:17;;;;;;;11.13;9.63;;;23.40;99.90;;;;;;4940176;28;20220;-73
2021/08/13 08:03:43;;;;;;;11.40;8.90;;;23.40;99.90;;;;;;4938364;29;20270;-73
2021/08/13 08:06:08;;;;;;;8.90;8.20;;;23.50;99.90;;;;;;4938654;29;20623;-73
2021/08/13 08:08:34;;;;;;;10.50;9.53;;;23.60;99.90;;;;;;4939592;29;20660;-73
2021/08/13 08:11:00;;;;;;;8.83;8.03;;;23.60;99.90;;;;;;4940352;29;20262;-73
2021/08/13 08:13:25;;;;;;;10.50;9.60;;;23.70;99.90;;;;;;4940188;28;20223;-73
2021/08/13 08:15:51;;;;;;;10.50;9.43;;;23.70;99.90;;;;;;4941342;29;20242;-73
2021/08/13 08:18:19;;;;;;;9.97;9.13;;;23.80;99.90;;;;;;4939045;28;20618;-73
2021/08/13 08:20:46;;;;;;;10.53;9.20;;;23.80;99.90;;;;;;4941914;28;20199;-73
2021/08/13 08:23:11;;;;;;;10.17;9.37;;;23.90;99.90;;;;;;4940290;28;20627;-73
2021/08/13 08:25:38;;;;;;;10.00;9.20;;;24.00;99.90;;;;;;4938359;28;20630;-73
2021/08/13 08:28:04;;;;;;;9.13;8.40;;;24.00;99.90;;;;;;4941541;28;20218;-72
2021/08/13 08:30:30;;;;;;;10.43;9.40;;;24.10;99.90;;;;;;4940707;28;20802;-73
2021/08/13 08:32:55;;;;;;;11.20;9.70;;;24.20;99.90;;;;;;4938836;28;20721;-73
2021/08/13 08:35:22;;;;;;;9.70;8.80;;;24.20;99.90;;;;;;4938192;29;20318;-74
2021/08/13 08:37:54;;;;;;;9.67;8.87;;;24.40;99.90;;;;;;4937330;28;20269;-73
2021/08/13 08:40:28;;;;;;;10.63;9.57;;;24.40;99.90;;;;;;4934376;28;20650;-73
2021/08/13 08:42:56;;;;;;;11.13;10.13;;;24.40;99.90;;;;;;4936941;28;20747;-73
2021/08/13 08:45:27;;;;;;;9.20;8.50;;;24.40;99.90;;;;;;4942673;29;20634;-73
2021/08/13 08:47:56;;;;;;;10.40;9.50;;;24.50;99.90;;;;;;4939600;29;21056;-73
2021/08/13 08:50:23;;;;;;;9.80;8.93;;;24.50;99.90;;;;;;4938182;29;21110;-73
2021/08/13 08:52:49;;;;;;;9.90;9.10;;;24.50;99.90;;;;;;4939259;28;20750;-73
2021/08/13 08:55:15;;;;;;;11.17;10.17;;;24.60;99.90;;;;;;4939379;29;20634;-73
2021/08/13 08:57:42;;;;;;;10.67;9.77;;;24.60;99.90;;;;;;4939419;29;20731;-73
2021/08/13 09:00:08;;;;;;;10.07;9.07;;;24.70;99.90;;;;;;4938866;28;20212;-73
2021/08/13 09:02:34;;;;;;;9.80;8.97;;;24.70;99.90;;;;;;4939256;28;20634;-73
2021/08/13 09:05:00;;;;;;;10.43;9.43;;;24.80;99.90;;;;;;4952590;28;20658;-73
2021/08/13 09:07:27;;;;;;;10.10;9.20;;;24.80;99.90;;;;;;4939040;29;21161;-73
2021/08/13 09:09:53;;;;;;;11.17;10.17;;;24.80;99.90;;;;;;4940074;29;20719;-73
2021/08/13 09:12:20;;;;;;;10.33;9.53;;;24.90;99.90;;;;;;4938487;28;20715;-73
2021/08/13 09:14:45;;;;;;;10.50;9.60;;;24.90;99.90;;;;;;4939949;29;20632;-73
2021/08/13 09:17:11;;;;;;;10.77;9.70;;;25.00;99.90;;;;;;4938088;29;20650;-73
2021/08/13 09:19:41;;;;;;;11.07;9.97;;;25.00;99.90;;;;;;4938671;28;20213;-73
2021/08/13 09:22:12;;;;;;;9.90;9.00;;;25.10;99.90;;;;;;4940862;28;20223;-73
2021/08/13 09:24:40;;;;;;;9.20;8.50;;;25.10;99.90;;;;;;4938950;29;20591;-73
2021/08/13 09:27:23;;;;;;;9.80;8.90;;;25.30;99.90;;;;;;4940189;28;21164;-72
2021/08/13 09:30:19;;;;;;;9.97;9.00;;;25.40;99.90;;;;;;4944311;28;20678;-74
2021/08/13 09:32:56;;;;;;;11.00;10.07;;;25.50;99.90;;;;;;4946427;28;20758;-73
2021/08/13 09:35:33;;;;;;;10.20;9.30;;;25.50;99.90;;;;;;4954867;29;20621;-74
2021/08/13 09:38:00;;;;;;;10.47;9.47;;;25.50;99.90;;;;;;4953186;29;20643;-72
2021/08/13 09:40:26;;;;;;;10.47;9.57;;;25.50;99.90;;;;;;4940264;29;20666;-73
2021/08/13 09:43:01;;;;;;;9.50;8.80;;;25.60;99.90;;;;;;4939166;28;20628;-73
2021/08/13 09:45:26;;;;;;;10.20;9.40;;;25.70;99.90;;;;;;4940255;28;20223;-73
2021/08/13 09:47:52;;;;;;;9.60;8.80;;;25.70;99.90;;;;;;4943628;29;20622;-73
2021/08/13 09:50:21;;;;;;;10.00;9.07;;;25.80;99.90;;;;;;4940105;28;20549;-73
2021/08/13 09:53:06;;;;;;;9.20;8.30;;;25.90;99.90;;;;;;4938357;28;20216;-73
2021/08/13 09:55:31;;;;;;;8.73;8.03;;;26.00;99.90;;;;;;4937624;28;21133;-73
2021/08/13 09:57:57;;;;;;;8.77;7.87;;;26.10;99.90;;;;;;4936958;29;20744;-73
2021/08/13 10:00:22;;;;;;;8.67;7.87;;;26.20;99.90;;;;;;4944763;28;20223;-73
2021/08/13 10:02:48;;;;;;;9.30;8.50;;;26.30;99.90;;;;;;4939341;28;20707;-73
2021/08/13 10:05:22;;;;;;;9.73;8.73;;;26.30;99.90;;;;;;4937548;29;20295;-73
2021/08/13 10:07:57;;;;;;;9.63;8.83;;;26.40;99.90;;;;;;4935873;28;20191;-73
2021/08/13 10:10:33;;;;;;;10.90;9.47;;;26.40;99.90;;;;;;4937265;29;20798;-73
2021/08/13 10:13:00;;;;;;;9.43;8.63;;;26.50;99.90;;;;;;4938391;28;20738;-73
2021/08/13 10:15:35;;;;;;;9.77;8.97;;;26.40;99.90;;;;;;4936918;29;20810;-73
2021/08/13 10:18:07;;;;;;;10.53;9.23;;;26.50;99.90;;;;;;4936611;29;22225;-73
2021/08/13 10:20:36;;;;;;;11.50;9.27;;;26.50;99.90;;;;;;4940549;28;20640;-73
2021/08/13 10:23:01;;;;;;;8.97;8.23;;;26.80;99.90;;;;;;4936529;28;20698;-73
2021/08/13 10:25:28;;;;;;;9.17;8.37;;;26.70;99.90;;;;;;4937750;28;20628;-73
2021/08/13 10:27:54;;;;;;;9.20;8.47;;;26.90;99.90;;;;;;4938788;29;20249;-73
2021/08/13 10:30:21;;;;;;;10.30;8.23;;;26.90;99.90;;;;;;4938649;28;21255;-73
2021/08/13 10:32:47;;;;;;;9.33;8.53;;;27.00;99.90;;;;;;4937497;28;20312;-73
2021/08/13 10:35:13;;;;;;;9.93;8.93;;;27.00;99.90;;;;;;4938665;29;20631;-73
2021/08/13 10:37:41;;;;;;;9.47;8.67;;;27.00;99.90;;;;;;4938678;29;20320;-73
2021/08/13 10:40:10;;;;;;;8.50;7.80;;;27.10;99.90;;;;;;4936527;29;20665;-73
2021/08/13 10:42:44;;;;;;;9.13;8.27;;;27.20;99.90;;;;;;4937755;28;20603;-73
2021/08/13 10:45:13;;;;;;;8.97;8.13;;;27.20;99.90;;;;;;4938756;29;21008;-73
2021/08/13 10:48:00;;;;;;;8.53;7.83;;;27.10;99.90;;;;;;4937851;29;20631;-74
2021/08/13 10:50:27;;;;;;;8.70;7.90;;;27.10;99.90;;;;;;4938238;29;20686;-73
2021/08/13 10:52:52;;;;;;;9.30;8.57;;;27.20;99.90;;;;;;4936322;28;21829;-73
2021/08/13 10:55:47;;;;;;;8.57;7.97;;;27.20;99.90;;;;;;4936165;28;20723;-74
2021/08/13 10:58:14;;;;;;;9.90;9.10;;;27.30;99.90;;;;;;4943637;28;20192;-73
2021/08/13 11:01:10;;;;;;;9.23;8.53;;;27.20;99.90;;;;;;4941270;28;21082;-73
2021/08/13 11:04:04;;;;;;;8.40;7.73;;;27.30;99.90;;;;;;4946456;28;20631;-73
2021/08/13 11:06:36;;;;;;;8.80;8.00;;;27.30;99.90;;;;;;4944588;28;21260;-73
2021/08/13 11:09:05;;;;;;;9.27;8.47;;;27.40;99.90;;;;;;4944615;28;20741;-73
2021/08/13 11:11:51;;;;;;;8.80;8.10;;;27.50;99.90;;;;;;4945341;28;20646;-73
2021/08/13 11:14:31;;;;;;;8.50;7.80;;;27.70;99.90;;;;;;4946317;29;20580;-73
2021/08/13 11:16:57;;;;;;;8.10;7.40;;;27.70;99.90;;;;;;4944674;28;20729;-73
2021/08/13 11:19:24;;;;;;;8.60;7.77;;;27.70;99.90;;;;;;4942385;28;20675;-73
2021/08/13 11:21:55;;;;;;;8.70;8.00;;;27.60;99.90;;;;;;4942652;28;21275;-73
2021/08/13 11:24:50;;;;;;;8.70;7.90;;;27.70;99.90;;;;;;4944014;28;20701;-74
2021/08/13 11:27:16;;;;;;;8.97;8.17;;;27.70;99.90;;;;;;4944629;28;20584;-73
2021/08/13 11:29:45;;;;;;;8.17;7.57;;;27.70;99.90;;;;;;4944210;28;20666;-73
2021/08/13 11:32:14;;;;;;;9.13;8.27;;;27.70;99.90;;;;;;4955630;28;20724;-73
2021/08/13 11:34:49;;;;;;;9.40;8.50;;;27.70;99.90;;;;;;4941544;28;20616;-73
2021/08/13 11:37:33;;;;;;;9.60;8.90;;;27.80;99.90;;;;;;4941190;28;20590;-73
2021/08/13 11:40:14;;;;;;;9.33;8.53;;;27.80;99.90;;;;;;4942214;28;20647;-73
2021/08/13 11:42:48;;;;;;;8.83;8.13;;;27.80;99.90;;;;;;4946085;28;21011;-73
2021/08/13 11:45:16;;;;;;;9.90;9.00;;;27.80;99.90;;;;;;4949716;28;20621;-73
2021/08/13 11:47:52;;;;;;;8.47;7.70;;;28.00;99.90;;;;;;4949381;29;21333;-73
2021/08/13 11:50:18;;;;;;;8.43;7.73;;;28.00;99.90;;;;;;4941953;28;20655;-73
2021/08/13 11:52:51;;;;;;;8.63;7.93;;;28.10;99.90;;;;;;4939885;28;20761;-73
2021/08/13 11:55:26;;;;;;;8.97;8.20;;;28.20;99.90;;;;;;4944901;28;20626;-73
2021/08/13 11:58:02;;;;;;;8.90;8.10;;;28.20;99.90;;;;;;4943809;28;20642;-73
2021/08/13 12:00:36;;;;;;;8.63;7.83;;;28.20;99.90;;;;;;4943236;28;21367;-73
2021/08/13 12:03:09;;;;;;;8.70;7.90;;;28.20;99.90;;;;;;4945843;28;20645;-73
2021/08/13 12:05:39;;;;;;;9.80;8.87;;;28.20;99.90;;;;;;4941185;28;20714;-74
2021/08/13 12:08:13;;;;;;;9.03;8.23;;;28.30;99.90;;;;;;4940488;28;20630;-74
2021/08/13 12:10:44;;;;;;;9.40;8.70;;;28.30;99.90;;;;;;4938900;28;20776;-75
2021/08/13 12:13:10;;;;;;;8.90;8.20;;;28.60;99.90;;;;;;4935442;28;20739;-74
2021/08/13 12:15:42;;;;;;;9.00;8.10;;;28.70;99.90;;;;;;4936805;28;20648;-74
2021/08/13 12:18:08;;;;;;;9.43;8.40;;;28.80;99.90;;;;;;4937232;28;20227;-74
2021/08/13 12:20:36;;;;;;;9.20;8.23;;;28.90;99.90;;;;;;4933226;28;20666;-74
2021/08/13 12:23:07;;;;;;;9.17;8.47;;;29.10;99.90;;;;;;4932797;28;20639;-74
2021/08/13 12:25:39;;;;;;;8.57;7.77;;;29.10;99.90;;;;;;4938252;28;21238;-74
2021/08/13 12:28:06;;;;;;;9.20;8.40;;;29.00;99.90;;;;;;4940166;29;21194;-74
2021/08/13 12:30:32;;;;;;;8.60;7.90;;;29.00;99.90;;;;;;4941256;28;20658;-74
2021/08/13 12:33:00;;;;;;;9.30;8.50;;;29.00;99.90;;;;;;4936367;28;20675;-74
2021/08/13 12:35:34;;;;;;;9.50;8.60;;;29.00;99.90;;;;;;4931696;28;20753;-74
2021/08/13 12:38:00;;;;;;;8.83;8.03;;;29.00;99.90;;;;;;4938452;28;20618;-74
2021/08/13 12:40:25;;;;;;;8.70;7.80;;;29.10;99.90;;;;;;4934982;28;20666;-74
2021/08/13 12:42:51;;;;;;;9.83;9.13;;;29.10;99.90;;;;;;4932697;28;20231;-74
2021/08/13 12:45:21;;;;;;;9.67;8.87;;;29.00;99.90;;;;;;4934639;28;20184;-75